sensor_id;sensor_type;location;lat;lon;timestamp;pressure;altitude;pressure_sealevel;temperature;humidity
54270;BME280;40181;51.560;13.000;2023-07-30T00:00:56;100017.66;;;18.74;99.67
54270;BME280;40181;51.560;13.000;2023-07-30T00:03:25;100011.34;;;18.45;100.00
54270;BME280;40181;51.560;13.000;2023-07-30T00:05:54;100016.13;;;18.63;100.00
54270;BME280;40181;51.560;13.000;2023-07-30T00:08:24;100011.94;;;18.56;100.00
54270;BME280;40181;51.560;13.000;2023-07-30T00:10:53;100014.88;;;18.77;100.00
54270;BME280;40181;51.560;13.000;2023-07-30T00:13:27;100010.78;;;18.95;98.97
54270;BME280;40181;51.560;13.000;2023-07-30T00:15:56;99998.75;;;18.83;100.00
54270;BME280;40181;51.560;13.000;2023-07-30T00:18:25;100010.38;;;18.79;100.00
54270;BME280;40181;51.560;13.000;2023-07-30T00:20:54;100016.31;;;18.89;99.55
54270;BME280;40181;51.560;13.000;2023-07-30T00:23:23;100018.75;;;18.65;100.00
54270;BME280;40181;51.560;13.000;2023-07-30T00:25:52;100005.56;;;18.62;100.00
54270;BME280;40181;51.560;13.000;2023-07-30T00:28:26;100001.34;;;18.55;100.00
54270;BME280;40181;51.560;13.000;2023-07-30T00:30:55;99990.91;;;18.78;99.43
54270;BME280;40181;51.560;13.000;2023-07-30T00:33:24;99999.34;;;18.61;99.41
54270;BME280;40181;51.560;13.000;2023-07-30T00:35:53;99993.84;;;18.69;99.46
54270;BME280;40181;51.560;13.000;2023-07-30T00:38:22;99990.31;;;18.67;100.00
54270;BME280;40181;51.560;13.000;2023-07-30T00:40:51;99988.13;;;18.51;100.00
54270;BME280;40181;51.560;13.000;2023-07-30T00:43:21;99984.31;;;18.29;100.00
54270;BME280;40181;51.560;13.000;2023-07-30T00:45:52;99990.47;;;18.31;100.00
54270;BME280;40181;51.560;13.000;2023-07-30T00:48:21;99974.72;;;18.55;100.00
54270;BME280;40181;51.560;13.000;2023-07-30T00:50:51;99989.13;;;18.47;100.00
54270;BME280;40181;51.560;13.000;2023-07-30T00:53:21;99978.56;;;18.44;100.00
54270;BME280;40181;51.560;13.000;2023-07-30T00:55:52;99988.56;;;18.67;99.90
54270;BME280;40181;51.560;13.000;2023-07-30T00:58:24;99982.31;;;18.69;98.93
54270;BME280;40181;51.560;13.000;2023-07-30T01:00:54;99972.28;;;18.78;98.27
54270;BME280;40181;51.560;13.000;2023-07-30T01:03:24;99987.50;;;18.73;98.88
54270;BME280;40181;51.560;13.000;2023-07-30T01:05:54;99990.91;;;18.15;100.00
54270;BME280;40181;51.560;13.000;2023-07-30T01:08:23;99985.00;;;18.35;100.00
54270;BME280;40181;51.560;13.000;2023-07-30T01:10:53;99986.38;;;18.19;100.00
54270;BME280;40181;51.560;13.000;2023-07-30T01:13:25;99979.16;;;18.54;100.00
54270;BME280;40181;51.560;13.000;2023-07-30T01:15:56;99979.13;;;18.56;99.70
54270;BME280;40181;51.560;13.000;2023-07-30T01:18:25;99986.06;;;18.61;99.64
54270;BME280;40181;51.560;13.000;2023-07-30T01:21:00;99985.88;;;18.37;100.00
54270;BME280;40181;51.560;13.000;2023-07-30T01:23:29;99979.69;;;18.35;100.00
54270;BME280;40181;51.560;13.000;2023-07-30T01:26:02;99990.41;;;18.34;100.00
54270;BME280;40181;51.560;13.000;2023-07-30T01:28:37;100006.47;;;17.94;100.00
54270;BME280;40181;51.560;13.000;2023-07-30T01:31:14;99990.97;;;18.12;100.00
54270;BME280;40181;51.560;13.000;2023-07-30T01:33:47;99998.81;;;18.17;100.00
54270;BME280;40181;51.560;13.000;2023-07-30T01:36:20;99994.69;;;18.38;100.00
54270;BME280;40181;51.560;13.000;2023-07-30T01:38:50;100001.47;;;18.17;100.00
54270;BME280;40181;51.560;13.000;2023-07-30T01:41:19;100003.34;;;18.46;100.00
54270;BME280;40181;51.560;13.000;2023-07-30T01:43:49;100004.25;;;18.45;99.25
54270;BME280;40181;51.560;13.000;2023-07-30T01:46:19;100001.53;;;18.15;100.00
54270;BME280;40181;51.560;13.000;2023-07-30T01:48:48;100001.22;;;18.26;100.00
54270;BME280;40181;51.560;13.000;2023-07-30T01:51:20;100016.22;;;17.94;100.00
54270;BME280;40181;51.560;13.000;2023-07-30T01:53:49;100009.03;;;18.32;100.00
54270;BME280;40181;51.560;13.000;2023-07-30T01:56:18;99997.59;;;18.30;100.00
54270;BME280;40181;51.560;13.000;2023-07-30T01:58:47;100016.94;;;18.01;100.00
54270;BME280;40181;51.560;13.000;2023-07-30T02:01:16;100006.22;;;18.05;100.00
54270;BME280;40181;51.560;13.000;2023-07-30T02:03:45;100003.22;;;18.18;100.00
54270;BME280;40181;51.560;13.000;2023-07-30T02:06:14;100012.31;;;18.09;100.00
54270;BME280;40181;51.560;13.000;2023-07-30T02:08:46;99992.81;;;18.10;100.00
54270;BME280;40181;51.560;13.000;2023-07-30T02:11:15;99999.53;;;17.89;100.00
54270;BME280;40181;51.560;13.000;2023-07-30T02:13:44;100011.28;;;18.15;100.00
54270;BME280;40181;51.560;13.000;2023-07-30T02:16:14;99998.31;;;18.02;100.00
54270;BME280;40181;51.560;13.000;2023-07-30T02:18:44;99997.19;;;18.11;100.00
54270;BME280;40181;51.560;13.000;2023-07-30T02:21:13;99998.28;;;18.04;100.00
54270;BME280;40181;51.560;13.000;2023-07-30T02:23:42;99994.00;;;18.31;99.65
54270;BME280;40181;51.560;13.000;2023-07-30T02:26:14;100007.47;;;18.25;99.27
54270;BME280;40181;51.560;13.000;2023-07-30T02:28:43;100003.59;;;18.37;99.12
54270;BME280;40181;51.560;13.000;2023-07-30T02:31:12;99999.97;;;18.08;100.00
54270;BME280;40181;51.560;13.000;2023-07-30T02:33:41;100005.59;;;18.29;100.00
54270;BME280;40181;51.560;13.000;2023-07-30T02:36:10;100005.56;;;18.62;97.35
54270;BME280;40181;51.560;13.000;2023-07-30T02:38:39;100000.44;;;18.54;97.54
54270;BME280;40181;51.560;13.000;2023-07-30T02:41:11;100012.63;;;18.63;97.56
54270;BME280;40181;51.560;13.000;2023-07-30T02:43:40;100013.63;;;18.59;97.20
54270;BME280;40181;51.560;13.000;2023-07-30T02:46:09;100010.75;;;18.66;96.61
54270;BME280;40181;51.560;13.000;2023-07-30T02:48:38;100017.16;;;18.59;96.77
54270;BME280;40181;51.560;13.000;2023-07-30T02:51:08;100019.94;;;18.23;98.59
54270;BME280;40181;51.560;13.000;2023-07-30T02:53:37;100013.84;;;18.51;98.17
54270;BME280;40181;51.560;13.000;2023-07-30T02:56:06;100023.00;;;18.41;97.65
54270;BME280;40181;51.560;13.000;2023-07-30T02:58:38;100023.66;;;18.16;98.75
54270;BME280;40181;51.560;13.000;2023-07-30T03:01:07;100027.44;;;17.70;100.00
54270;BME280;40181;51.560;13.000;2023-07-30T03:03:36;100020.94;;;18.19;100.00
54270;BME280;40181;51.560;13.000;2023-07-30T03:06:05;100029.44;;;17.97;99.99
54270;BME280;40181;51.560;13.000;2023-07-30T03:08:34;100027.81;;;17.91;100.00
54270;BME280;40181;51.560;13.000;2023-07-30T03:11:04;100028.63;;;17.93;100.00
54270;BME280;40181;51.560;13.000;2023-07-30T03:13:33;100033.91;;;17.95;100.00
54270;BME280;40181;51.560;13.000;2023-07-30T03:16:05;100022.28;;;17.99;100.00
54270;BME280;40181;51.560;13.000;2023-07-30T03:18:34;100020.34;;;18.41;98.85
54270;BME280;40181;51.560;13.000;2023-07-30T03:21:03;100021.88;;;18.16;99.03
54270;BME280;40181;51.560;13.000;2023-07-30T03:23:32;100023.22;;;18.33;99.37
54270;BME280;40181;51.560;13.000;2023-07-30T03:26:01;100026.66;;;18.02;100.00
54270;BME280;40181;51.560;13.000;2023-07-30T03:28:30;100030.00;;;18.10;99.94
54270;BME280;40181;51.560;13.000;2023-07-30T03:30:59;100031.13;;;18.01;99.91
54270;BME280;40181;51.560;13.000;2023-07-30T03:33:31;100022.13;;;17.70;100.00
54270;BME280;40181;51.560;13.000;2023-07-30T03:36:00;100027.25;;;18.15;99.31
54270;BME280;40181;51.560;13.000;2023-07-30T03:38:30;100019.13;;;18.19;98.66
54270;BME280;40181;51.560;13.000;2023-07-30T03:40:59;100026.63;;;18.03;99.67
54270;BME280;40181;51.560;13.000;2023-07-30T03:43:28;100014.97;;;18.10;98.83
54270;BME280;40181;51.560;13.000;2023-07-30T03:45:57;100030.00;;;18.10;99.33
54270;BME280;40181;51.560;13.000;2023-07-30T03:48:26;100017.28;;;18.23;98.06
54270;BME280;40181;51.560;13.000;2023-07-30T03:50:58;100021.69;;;18.22;97.52
54270;BME280;40181;51.560;13.000;2023-07-30T03:53:28;100023.13;;;18.01;98.68
54270;BME280;40181;51.560;13.000;2023-07-30T03:55:57;100035.25;;;18.13;98.66
54270;BME280;40181;51.560;13.000;2023-07-30T03:58:26;100016.78;;;18.40;97.93
54270;BME280;40181;51.560;13.000;2023-07-30T04:00:56;100018.22;;;18.20;98.11
54270;BME280;40181;51.560;13.000;2023-07-30T04:03:25;100022.59;;;18.23;98.33
54270;BME280;40181;51.560;13.000;2023-07-30T04:05:54;100037.88;;;18.48;98.14
54270;BME280;40181;51.560;13.000;2023-07-30T04:08:26;100024.59;;;18.13;99.41
54270;BME280;40181;51.560;13.000;2023-07-30T04:10:55;100021.13;;;18.44;99.19
54270;BME280;40181;51.560;13.000;2023-07-30T04:13:24;100031.63;;;18.49;98.58
54270;BME280;40181;51.560;13.000;2023-07-30T04:15:53;100029.53;;;18.29;99.85
54270;BME280;40181;51.560;13.000;2023-07-30T04:18:23;100037.63;;;18.57;99.07
54270;BME280;40181;51.560;13.000;2023-07-30T04:20:54;100031.94;;;18.38;99.08
54270;BME280;40181;51.560;13.000;2023-07-30T04:23:25;100044.91;;;18.17;100.00
54270;BME280;40181;51.560;13.000;2023-07-30T04:25:55;100040.63;;;18.11;100.00
54270;BME280;40181;51.560;13.000;2023-07-30T04:28:24;100044.00;;;18.17;100.00
54270;BME280;40181;51.560;13.000;2023-07-30T04:30:53;100040.09;;;17.95;100.00
54270;BME280;40181;51.560;13.000;2023-07-30T04:33:22;100035.50;;;18.02;100.00
54270;BME280;40181;51.560;13.000;2023-07-30T04:35:51;100038.56;;;18.21;100.00
54270;BME280;40181;51.560;13.000;2023-07-30T04:38:23;100041.41;;;18.15;100.00
54270;BME280;40181;51.560;13.000;2023-07-30T04:40:52;100033.81;;;17.98;100.00
54270;BME280;40181;51.560;13.000;2023-07-30T04:43:21;100048.03;;;17.97;100.00
54270;BME280;40181;51.560;13.000;2023-07-30T04:45:51;100046.78;;;18.12;100.00
54270;BME280;40181;51.560;13.000;2023-07-30T04:48:20;100053.47;;;18.27;100.00
54270;BME280;40181;51.560;13.000;2023-07-30T04:50:49;100050.91;;;18.24;100.00
54270;BME280;40181;51.560;13.000;2023-07-30T04:53:18;100049.53;;;18.09;100.00
54270;BME280;40181;51.560;13.000;2023-07-30T04:55:54;100049.72;;;18.01;100.00
54270;BME280;40181;51.560;13.000;2023-07-30T04:58:24;100055.31;;;18.25;100.00
54270;BME280;40181;51.560;13.000;2023-07-30T05:00:53;100063.25;;;18.27;100.00
54270;BME280;40181;51.560;13.000;2023-07-30T05:03:22;100057.53;;;18.07;100.00
54270;BME280;40181;51.560;13.000;2023-07-30T05:05:51;100054.09;;;18.38;100.00
54270;BME280;40181;51.560;13.000;2023-07-30T05:08:21;100060.81;;;18.19;100.00
54270;BME280;40181;51.560;13.000;2023-07-30T05:10:55;100054.88;;;18.42;100.00
54270;BME280;40181;51.560;13.000;2023-07-30T05:13:24;100065.81;;;18.30;100.00
54270;BME280;40181;51.560;13.000;2023-07-30T05:15:53;100074.59;;;18.33;100.00
54270;BME280;40181;51.560;13.000;2023-07-30T05:18:22;100065.31;;;18.48;100.00
54270;BME280;40181;51.560;13.000;2023-07-30T05:20:51;100068.63;;;18.58;100.00
54270;BME280;40181;51.560;13.000;2023-07-30T05:23:20;100075.59;;;18.29;100.00
54270;BME280;40181;51.560;13.000;2023-07-30T05:25:50;100070.28;;;18.29;100.00
54270;BME280;40181;51.560;13.000;2023-07-30T05:28:21;100069.81;;;18.46;100.00
54270;BME280;40181;51.560;13.000;2023-07-30T05:30:51;100062.19;;;18.34;100.00
54270;BME280;40181;51.560;13.000;2023-07-30T05:33:20;100071.03;;;18.34;100.00
54270;BME280;40181;51.560;13.000;2023-07-30T05:35:49;100064.13;;;18.27;100.00
54270;BME280;40181;51.560;13.000;2023-07-30T05:38:18;100075.09;;;18.15;100.00
54270;BME280;40181;51.560;13.000;2023-07-30T05:40:47;100067.69;;;18.26;100.00
54270;BME280;40181;51.560;13.000;2023-07-30T05:43:16;100064.06;;;17.94;100.00
54270;BME280;40181;51.560;13.000;2023-07-30T05:45:48;100067.38;;;18.38;100.00
54270;BME280;40181;51.560;13.000;2023-07-30T05:48:17;100063.81;;;18.05;100.00
54270;BME280;40181;51.560;13.000;2023-07-30T05:50:46;100062.50;;;18.21;100.00
54270;BME280;40181;51.560;13.000;2023-07-30T05:53:15;100057.34;;;18.48;100.00
54270;BME280;40181;51.560;13.000;2023-07-30T05:55:44;100058.91;;;18.57;100.00
54270;BME280;40181;51.560;13.000;2023-07-30T05:58:14;100059.28;;;18.43;100.00
54270;BME280;40181;51.560;13.000;2023-07-30T06:00:43;100060.63;;;18.58;100.00
54270;BME280;40181;51.560;13.000;2023-07-30T06:03:15;100063.34;;;18.57;100.00
54270;BME280;40181;51.560;13.000;2023-07-30T06:05:44;100064.00;;;18.65;100.00
54270;BME280;40181;51.560;13.000;2023-07-30T06:08:13;100071.88;;;18.68;100.00
54270;BME280;40181;51.560;13.000;2023-07-30T06:10:42;100089.47;;;18.41;100.00
54270;BME280;40181;51.560;13.000;2023-07-30T06:13:12;100082.25;;;18.46;100.00
54270;BME280;40181;51.560;13.000;2023-07-30T06:15:41;100074.22;;;18.80;100.00
54270;BME280;40181;51.560;13.000;2023-07-30T06:18:10;100066.50;;;18.71;100.00
54270;BME280;40181;51.560;13.000;2023-07-30T06:20:42;100073.78;;;18.64;100.00
54270;BME280;40181;51.560;13.000;2023-07-30T06:23:11;100081.56;;;18.71;100.00
54270;BME280;40181;51.560;13.000;2023-07-30T06:25:40;100083.53;;;18.96;100.00
54270;BME280;40181;51.560;13.000;2023-07-30T06:28:10;100084.81;;;19.14;100.00
54270;BME280;40181;51.560;13.000;2023-07-30T06:30:39;100088.97;;;19.24;99.44
54270;BME280;40181;51.560;13.000;2023-07-30T06:33:08;100088.97;;;19.24;98.71
54270;BME280;40181;51.560;13.000;2023-07-30T06:35:37;100090.44;;;19.33;97.15
54270;BME280;40181;51.560;13.000;2023-07-30T06:38:09;100099.53;;;19.26;97.24
54270;BME280;40181;51.560;13.000;2023-07-30T06:40:39;100086.03;;;19.32;97.22
54270;BME280;40181;51.560;13.000;2023-07-30T06:43:08;100087.50;;;19.42;97.05
54270;BME280;40181;51.560;13.000;2023-07-30T06:45:37;100093.28;;;19.57;96.33
54270;BME280;40181;51.560;13.000;2023-07-30T06:48:06;100085.25;;;19.58;96.17
54270;BME280;40181;51.560;13.000;2023-07-30T06:50:35;100100.38;;;19.85;95.31
54270;BME280;40181;51.560;13.000;2023-07-30T06:53:04;100082.88;;;20.04;94.68
54270;BME280;40181;51.560;13.000;2023-07-30T06:55:36;100085.91;;;19.94;93.92
54270;BME280;40181;51.560;13.000;2023-07-30T06:58:05;100086.59;;;20.00;92.86
54270;BME280;40181;51.560;13.000;2023-07-30T07:00:34;100093.06;;;19.91;92.78
54270;BME280;40181;51.560;13.000;2023-07-30T07:03:03;100087.94;;;19.85;92.75
54270;BME280;40181;51.560;13.000;2023-07-30T07:05:33;100094.16;;;20.13;92.29
54270;BME280;40181;51.560;13.000;2023-07-30T07:08:02;100101.00;;;20.22;93.09
54270;BME280;40181;51.560;13.000;2023-07-30T07:10:31;100092.88;;;20.25;92.86
54270;BME280;40181;51.560;13.000;2023-07-30T07:13:03;100103.28;;;20.32;91.39
54270;BME280;40181;51.560;13.000;2023-07-30T07:15:32;100098.69;;;20.11;91.13
54270;BME280;40181;51.560;13.000;2023-07-30T07:18:02;100097.78;;;20.37;90.65
54270;BME280;40181;51.560;13.000;2023-07-30T07:20:31;100100.19;;;20.96;89.59
54270;BME280;40181;51.560;13.000;2023-07-30T07:23:00;100095.41;;;20.80;87.67
54270;BME280;40181;51.560;13.000;2023-07-30T07:25:29;100100.16;;;20.72;86.26
54270;BME280;40181;51.560;13.000;2023-07-30T07:27:59;100104.84;;;20.91;85.67
54270;BME280;40181;51.560;13.000;2023-07-30T07:30:30;100097.34;;;21.00;86.15
54270;BME280;40181;51.560;13.000;2023-07-30T07:33:02;100103.22;;;21.10;85.81
54270;BME280;40181;51.560;13.000;2023-07-30T07:35:31;100102.22;;;20.89;85.85
54270;BME280;40181;51.560;13.000;2023-07-30T07:38:01;100101.22;;;20.92;83.85
54270;BME280;40181;51.560;13.000;2023-07-30T07:40:30;100108.59;;;20.85;85.21
54270;BME280;40181;51.560;13.000;2023-07-30T07:43:04;100102.06;;;21.18;84.39
54270;BME280;40181;51.560;13.000;2023-07-30T07:45:36;100097.13;;;20.81;83.02
54270;BME280;40181;51.560;13.000;2023-07-30T07:48:05;100106.44;;;20.95;84.32
54270;BME280;40181;51.560;13.000;2023-07-30T07:50:34;100110.34;;;21.34;79.81
54270;BME280;40181;51.560;13.000;2023-07-30T07:53:03;100091.78;;;21.31;81.95
54270;BME280;40181;51.560;13.000;2023-07-30T07:55:33;100105.63;;;21.40;79.60
54270;BME280;40181;51.560;13.000;2023-07-30T07:58:02;100105.88;;;21.34;77.84
54270;BME280;40181;51.560;13.000;2023-07-30T08:00:31;100117.97;;;21.67;77.96
54270;BME280;40181;51.560;13.000;2023-07-30T08:03:18;100114.25;;;21.93;75.48
54270;BME280;40181;51.560;13.000;2023-07-30T08:05:47;100109.19;;;22.30;75.33
54270;BME280;40181;51.560;13.000;2023-07-30T08:08:17;100106.56;;;22.29;72.56
54270;BME280;40181;51.560;13.000;2023-07-30T08:10:46;100109.03;;;22.33;73.97
54270;BME280;40181;51.560;13.000;2023-07-30T08:13:15;100102.44;;;22.63;74.98
54270;BME280;40181;51.560;13.000;2023-07-30T08:15:44;100098.56;;;22.70;71.32
54270;BME280;40181;51.560;13.000;2023-07-30T08:18:13;100095.94;;;22.69;72.49
54270;BME280;40181;51.560;13.000;2023-07-30T08:20:45;100094.78;;;22.33;71.37
54270;BME280;40181;51.560;13.000;2023-07-30T08:23:14;100097.69;;;22.06;71.57
54270;BME280;40181;51.560;13.000;2023-07-30T08:25:43;100091.84;;;22.39;70.34
54270;BME280;40181;51.560;13.000;2023-07-30T08:28:15;100085.09;;;22.30;72.15
54270;BME280;40181;51.560;13.000;2023-07-30T08:30:44;100088.81;;;22.26;72.82
54270;BME280;40181;51.560;13.000;2023-07-30T08:33:13;100086.72;;;22.55;72.37
54270;BME280;40181;51.560;13.000;2023-07-30T08:35:45;100091.00;;;22.59;70.20
54270;BME280;40181;51.560;13.000;2023-07-30T08:38:14;100088.59;;;22.53;72.06
54270;BME280;40181;51.560;13.000;2023-07-30T08:40:43;100080.66;;;22.51;72.02
54270;BME280;40181;51.560;13.000;2023-07-30T08:43:13;100082.34;;;22.73;72.32
54270;BME280;40181;51.560;13.000;2023-07-30T08:45:43;100081.44;;;22.54;73.13
54270;BME280;40181;51.560;13.000;2023-07-30T08:48:12;100083.19;;;22.55;72.57
54270;BME280;40181;51.560;13.000;2023-07-30T08:50:44;100081.69;;;22.68;68.90
54270;BME280;40181;51.560;13.000;2023-07-30T08:53:14;100084.75;;;22.38;71.44
54270;BME280;40181;51.560;13.000;2023-07-30T08:55:44;100082.72;;;22.02;70.71
54270;BME280;40181;51.560;13.000;2023-07-30T08:58:14;100082.03;;;22.39;68.40
54270;BME280;40181;51.560;13.000;2023-07-30T09:00:44;100070.78;;;22.52;66.94
54270;BME280;40181;51.560;13.000;2023-07-30T09:03:15;100071.38;;;22.99;66.18
54270;BME280;40181;51.560;13.000;2023-07-30T09:05:48;100084.63;;;22.83;66.61
54270;BME280;40181;51.560;13.000;2023-07-30T09:08:17;100085.72;;;22.58;65.62
54270;BME280;40181;51.560;13.000;2023-07-30T09:10:47;100084.81;;;22.78;65.69
54270;BME280;40181;51.560;13.000;2023-07-30T09:13:20;100086.84;;;22.52;65.88
54270;BME280;40181;51.560;13.000;2023-07-30T09:15:50;100089.50;;;22.73;66.27
54270;BME280;40181;51.560;13.000;2023-07-30T09:18:20;100085.72;;;22.98;65.66
54270;BME280;40181;51.560;13.000;2023-07-30T09:20:51;100098.56;;;22.49;65.66
54270;BME280;40181;51.560;13.000;2023-07-30T09:23:20;100104.44;;;22.78;64.72
54270;BME280;40181;51.560;13.000;2023-07-30T09:25:50;100111.53;;;22.59;64.98
54270;BME280;40181;51.560;13.000;2023-07-30T09:28:19;100098.03;;;22.62;64.81
54270;BME280;40181;51.560;13.000;2023-07-30T09:30:48;100103.72;;;22.94;63.74
54270;BME280;40181;51.560;13.000;2023-07-30T09:33:19;100098.25;;;23.16;62.05
54270;BME280;40181;51.560;13.000;2023-07-30T09:35:51;100114.72;;;23.28;61.96
54270;BME280;40181;51.560;13.000;2023-07-30T09:38:21;100109.59;;;23.42;61.76
54270;BME280;40181;51.560;13.000;2023-07-30T09:40:52;100111.75;;;23.34;60.25
54270;BME280;40181;51.560;13.000;2023-07-30T09:43:21;100113.94;;;23.45;59.79
54270;BME280;40181;51.560;13.000;2023-07-30T09:45:50;100119.81;;;23.34;59.45
54270;BME280;40181;51.560;13.000;2023-07-30T09:48:19;100107.81;;;23.22;60.10
54270;BME280;40181;51.560;13.000;2023-07-30T09:50:52;100124.00;;;23.40;59.01
54270;BME280;40181;51.560;13.000;2023-07-30T09:53:22;100112.72;;;23.33;57.90
54270;BME280;40181;51.560;13.000;2023-07-30T09:55:54;100106.41;;;23.53;58.31
54270;BME280;40181;51.560;13.000;2023-07-30T09:58:23;100112.56;;;23.55;57.92
54270;BME280;40181;51.560;13.000;2023-07-30T10:00:53;100101.13;;;23.88;56.02
54270;BME280;40181;51.560;13.000;2023-07-30T10:03:24;100105.63;;;24.25;54.23
54270;BME280;40181;51.560;13.000;2023-07-30T10:06:02;100099.84;;;24.33;53.85
54270;BME280;40181;51.560;13.000;2023-07-30T10:08:36;100101.44;;;24.19;54.78
54270;BME280;40181;51.560;13.000;2023-07-30T10:11:08;100106.47;;;24.43;54.14
54270;BME280;40181;51.560;13.000;2023-07-30T10:13:40;100095.66;;;24.09;53.62
54270;BME280;40181;51.560;13.000;2023-07-30T10:16:09;100111.25;;;23.45;54.25
54270;BME280;40181;51.560;13.000;2023-07-30T10:18:40;100094.63;;;24.12;52.68
54270;BME280;40181;51.560;13.000;2023-07-30T10:21:21;100095.56;;;24.64;54.10
54270;BME280;40181;51.560;13.000;2023-07-30T10:23:58;100099.66;;;24.00;53.29
54270;BME280;40181;51.560;13.000;2023-07-30T10:26:30;100094.19;;;24.02;52.93
54270;BME280;40181;51.560;13.000;2023-07-30T10:29:10;100106.81;;;24.19;51.21
54270;BME280;40181;51.560;13.000;2023-07-30T10:31:41;100112.16;;;23.82;50.76
54270;BME280;40181;51.560;13.000;2023-07-30T10:34:11;100099.72;;;24.36;50.67
54270;BME280;40181;51.560;13.000;2023-07-30T10:36:47;100101.16;;;24.77;50.91
54270;BME280;40181;51.560;13.000;2023-07-30T10:39:19;100107.56;;;24.74;48.87
54270;BME280;40181;51.560;13.000;2023-07-30T10:41:50;100088.25;;;25.33;48.49
54270;BME280;40181;51.560;13.000;2023-07-30T10:44:23;100095.22;;;25.21;48.20
54270;BME280;40181;51.560;13.000;2023-07-30T10:46:53;100086.25;;;25.37;47.53
54270;BME280;40181;51.560;13.000;2023-07-30T10:49:24;100091.81;;;25.34;46.13
54270;BME280;40181;51.560;13.000;2023-07-30T10:51:56;100102.31;;;24.71;46.74
54270;BME280;40181;51.560;13.000;2023-07-30T10:54:26;100078.44;;;25.00;46.99
54270;BME280;40181;51.560;13.000;2023-07-30T10:57:02;100088.19;;;25.35;47.17
54270;BME280;40181;51.560;13.000;2023-07-30T10:59:34;100086.13;;;24.90;44.50
54270;BME280;40181;51.560;13.000;2023-07-30T11:02:07;100101.94;;;24.96;46.38
54270;BME280;40181;51.560;13.000;2023-07-30T11:04:37;100083.13;;;24.45;47.13
54270;BME280;40181;51.560;13.000;2023-07-30T11:07:16;100086.19;;;25.22;47.38
54270;BME280;40181;51.560;13.000;2023-07-30T11:09:58;100071.78;;;25.39;46.28
54270;BME280;40181;51.560;13.000;2023-07-30T11:12:28;100084.47;;;25.53;47.07
54270;BME280;40181;51.560;13.000;2023-07-30T11:15:02;100081.41;;;25.27;47.21
54270;BME280;40181;51.560;13.000;2023-07-30T11:17:32;100081.31;;;25.13;47.23
54270;BME280;40181;51.560;13.000;2023-07-30T11:20:01;100080.31;;;24.98;47.80
54270;BME280;40181;51.560;13.000;2023-07-30T11:22:35;100062.28;;;24.66;47.62
54270;BME280;40181;51.560;13.000;2023-07-30T11:25:16;100075.59;;;25.03;47.71
54270;BME280;40181;51.560;13.000;2023-07-30T11:27:45;100079.19;;;24.86;47.33
54270;BME280;40181;51.560;13.000;2023-07-30T11:30:15;100076.59;;;25.00;48.47
54270;BME280;40181;51.560;13.000;2023-07-30T11:32:45;100068.34;;;25.53;48.08
54270;BME280;40181;51.560;13.000;2023-07-30T11:35:16;100074.88;;;24.99;48.36
54270;BME280;40181;51.560;13.000;2023-07-30T11:37:48;100072.72;;;25.06;48.44
54270;BME280;40181;51.560;13.000;2023-07-30T11:40:17;100070.31;;;25.50;47.17
54270;BME280;40181;51.560;13.000;2023-07-30T11:42:47;100081.06;;;25.34;47.95
54270;BME280;40181;51.560;13.000;2023-07-30T11:45:17;100070.47;;;25.14;47.73
54270;BME280;40181;51.560;13.000;2023-07-30T11:47:47;100066.09;;;25.62;46.64
54270;BME280;40181;51.560;13.000;2023-07-30T11:50:17;100062.34;;;25.48;46.82
54270;BME280;40181;51.560;13.000;2023-07-30T11:52:56;100072.94;;;25.51;46.25
54270;BME280;40181;51.560;13.000;2023-07-30T11:55:36;100063.16;;;24.84;46.78
54270;BME280;40181;51.560;13.000;2023-07-30T11:58:07;100053.75;;;25.25;47.10
54270;BME280;40181;51.560;13.000;2023-07-30T12:00:38;100060.72;;;25.62;46.36
54270;BME280;40181;51.560;13.000;2023-07-30T12:03:10;100058.38;;;26.02;45.48
54270;BME280;40181;51.560;13.000;2023-07-30T12:05:40;100055.84;;;25.99;45.34
54270;BME280;40181;51.560;13.000;2023-07-30T12:08:16;100054.19;;;25.66;47.16
54270;BME280;40181;51.560;13.000;2023-07-30T12:10:46;100036.16;;;25.20;46.33
54270;BME280;40181;51.560;13.000;2023-07-30T12:13:18;100054.63;;;25.26;46.11
54270;BME280;40181;51.560;13.000;2023-07-30T12:15:51;100044.38;;;25.49;45.71
54270;BME280;40181;51.560;13.000;2023-07-30T12:18:21;100048.06;;;25.94;46.25
54270;BME280;40181;51.560;13.000;2023-07-30T12:20:53;100044.31;;;25.97;46.31
54270;BME280;40181;51.560;13.000;2023-07-30T12:23:26;100050.56;;;26.28;46.36
54270;BME280;40181;51.560;13.000;2023-07-30T12:25:55;100040.75;;;26.27;46.17
54270;BME280;40181;51.560;13.000;2023-07-30T12:28:24;100034.69;;;25.93;45.60
54270;BME280;40181;51.560;13.000;2023-07-30T12:30:53;100045.19;;;25.51;45.29
54270;BME280;40181;51.560;13.000;2023-07-30T12:33:22;100031.41;;;25.88;45.69
54270;BME280;40181;51.560;13.000;2023-07-30T12:35:52;100029.19;;;25.64;45.94
54270;BME280;40181;51.560;13.000;2023-07-30T12:38:21;100019.31;;;25.48;46.62
54270;BME280;40181;51.560;13.000;2023-07-30T12:40:53;100031.88;;;25.48;47.38
54270;BME280;40181;51.560;13.000;2023-07-30T12:43:22;100021.59;;;25.40;45.99
54270;BME280;40181;51.560;13.000;2023-07-30T12:45:51;100019.22;;;25.96;46.62
54270;BME280;40181;51.560;13.000;2023-07-30T12:48:20;100021.34;;;25.91;46.74
54270;BME280;40181;51.560;13.000;2023-07-30T12:50:50;100020.31;;;26.08;46.69
54270;BME280;40181;51.560;13.000;2023-07-30T12:53:19;100018.03;;;25.86;46.93